createdAt,value
2018-07-12T00:01:16.730Z,16.77
2018-07-12T00:03:43.938Z,17.50
2018-07-12T00:06:11.120Z,17.50
2018-07-12T00:08:38.343Z,16.97
2018-07-12T00:11:05.535Z,16.32
2018-07-12T00:13:32.732Z,16.20
2018-07-12T00:15:59.943Z,15.87
2018-07-12T00:18:27.154Z,15.93
2018-07-12T00:20:54.363Z,16.70
2018-07-12T00:23:21.576Z,17.30
2018-07-12T00:25:48.789Z,18.02
2018-07-12T00:28:16.003Z,17.10
2018-07-12T00:30:43.230Z,16.70
2018-07-12T00:33:10.437Z,16.15
2018-07-12T00:35:37.636Z,17.42
2018-07-12T00:38:04.817Z,16.40
2018-07-12T00:40:32.031Z,16.42
2018-07-12T00:42:59.256Z,17.10
2018-07-12T00:45:26.446Z,16.97
2018-07-12T00:47:53.671Z,16.73
2018-07-12T00:50:20.849Z,16.57
2018-07-12T00:52:48.069Z,16.50
2018-07-12T00:55:15.261Z,16.43
2018-07-12T00:57:42.481Z,16.60
2018-07-12T01:00:09.672Z,16.00
2018-07-12T01:02:36.887Z,15.73
2018-07-12T01:05:04.098Z,16.70
2018-07-12T01:07:31.337Z,16.80
2018-07-12T01:09:58.562Z,16.82
2018-07-12T01:12:25.757Z,16.30
2018-07-12T01:14:52.976Z,17.30
2018-07-12T01:17:20.183Z,15.93
2018-07-12T01:19:47.393Z,16.40
2018-07-12T01:22:14.577Z,16.75
2018-07-12T01:24:41.781Z,17.60
2018-07-12T01:27:08.972Z,18.45
2018-07-12T01:29:36.169Z,18.60
2018-07-12T01:32:03.367Z,17.53
2018-07-12T01:34:30.579Z,18.27
2018-07-12T01:36:57.784Z,17.73
2018-07-12T01:39:25.010Z,18.10
2018-07-12T01:41:52.664Z,16.45
2018-07-12T01:44:19.865Z,18.20
2018-07-12T01:46:47.103Z,17.30
2018-07-12T01:49:14.296Z,16.87
2018-07-12T01:51:41.489Z,16.77
2018-07-12T01:54:08.690Z,17.48
2018-07-12T01:56:35.941Z,18.10
2018-07-12T01:59:03.160Z,18.48
2018-07-12T02:01:30.377Z,18.75
2018-07-12T02:03:57.585Z,18.75
2018-07-12T02:06:24.835Z,18.02
2018-07-12T02:08:52.055Z,16.95
2018-07-12T02:11:19.275Z,18.23
2018-07-12T02:13:46.482Z,19.40
2018-07-12T02:16:13.702Z,18.40
2018-07-12T02:18:40.927Z,18.62
2018-07-12T02:21:08.125Z,18.23
2018-07-12T02:23:35.349Z,17.95
2018-07-12T02:26:02.563Z,18.15
2018-07-12T02:28:29.817Z,18.40
2018-07-12T02:30:57.021Z,18.70
2018-07-12T02:33:24.239Z,18.30
2018-07-12T02:35:51.441Z,19.60
2018-07-12T02:38:18.653Z,20.00
2018-07-12T02:40:45.890Z,20.55
2018-07-12T02:43:13.092Z,21.52
2018-07-12T02:45:40.299Z,23.20
2018-07-12T02:48:07.524Z,22.65
2018-07-12T02:50:34.741Z,21.80
2018-07-12T02:53:01.926Z,21.77
2018-07-12T02:55:29.148Z,21.77
2018-07-12T02:57:56.428Z,21.40
2018-07-12T03:00:23.605Z,22.27
2018-07-12T03:02:50.809Z,22.10
2018-07-12T03:05:17.990Z,20.48
2018-07-12T03:07:45.188Z,19.80
2018-07-12T03:10:12.367Z,19.80
2018-07-12T03:12:39.570Z,21.90
2018-07-12T03:15:06.768Z,22.90
2018-07-12T03:17:33.978Z,21.90
2018-07-12T03:20:01.180Z,21.77
2018-07-12T03:22:28.423Z,22.22
2018-07-12T03:24:55.773Z,22.13
2018-07-12T03:27:22.977Z,21.67
2018-07-12T03:29:50.200Z,21.33
2018-07-12T03:32:17.459Z,21.15
2018-07-12T03:34:44.699Z,21.07
2018-07-12T03:37:11.927Z,21.07
2018-07-12T03:39:39.171Z,22.22
2018-07-12T03:42:06.423Z,22.82
2018-07-12T03:44:33.678Z,23.87
2018-07-12T03:47:00.896Z,23.27
2018-07-12T03:49:28.355Z,23.10
2018-07-12T03:51:55.593Z,21.57
2018-07-12T03:54:22.836Z,19.77
2018-07-12T03:56:50.038Z,18.77
2018-07-12T03:59:17.284Z,20.30
2018-07-12T04:01:44.519Z,21.35
2018-07-12T04:04:11.719Z,22.37
2018-07-12T04:06:38.939Z,20.12
2018-07-12T04:09:06.639Z,22.05
2018-07-12T04:11:33.860Z,21.75
2018-07-12T04:14:01.096Z,21.12
2018-07-12T04:16:28.372Z,21.45
2018-07-12T04:18:55.631Z,19.90
2018-07-12T04:21:22.829Z,19.20
2018-07-12T04:23:50.078Z,19.55
2018-07-12T04:26:17.289Z,18.75
2018-07-12T04:28:44.507Z,18.20
2018-07-12T04:31:12.053Z,17.77
2018-07-12T04:33:39.284Z,19.20
2018-07-12T04:36:06.510Z,19.67
2018-07-12T04:38:33.737Z,19.35
2018-07-12T04:41:00.946Z,20.82
2018-07-12T04:43:28.148Z,20.57
2018-07-12T04:45:55.377Z,19.82
2018-07-12T04:48:22.582Z,19.80
2018-07-12T04:50:49.800Z,19.70
2018-07-12T04:53:17.027Z,20.20
2018-07-12T04:55:44.241Z,22.40
2018-07-12T04:58:11.535Z,22.43
2018-07-12T05:00:38.674Z,20.70
2018-07-12T05:03:05.892Z,22.23
2018-07-12T05:05:33.225Z,22.00
2018-07-12T05:08:00.489Z,24.07
2018-07-12T05:10:27.720Z,23.18
2018-07-12T05:12:54.925Z,23.20
2018-07-12T05:15:22.152Z,24.07
2018-07-12T05:20:22.901Z,24.75
2018-07-12T05:22:50.122Z,23.40
2018-07-12T05:25:17.347Z,23.62
2018-07-12T05:27:44.577Z,21.20
2018-07-12T05:30:11.773Z,21.20
2018-07-12T05:32:39.005Z,22.37
2018-07-12T05:35:06.216Z,23.73
2018-07-12T05:37:34.569Z,23.90
2018-07-12T05:40:02.973Z,21.37
2018-07-12T05:42:31.277Z,21.10
2018-07-12T05:44:59.616Z,21.27
2018-07-12T05:47:28.040Z,20.63
2018-07-12T05:49:56.386Z,21.70
2018-07-12T05:52:24.745Z,22.25
2018-07-12T05:54:53.060Z,21.80
2018-07-12T05:57:40.125Z,22.82
2018-07-12T06:00:08.617Z,23.73
2018-07-12T06:02:37.468Z,23.90
2018-07-12T06:05:05.931Z,23.57
2018-07-12T06:07:34.281Z,23.00
2018-07-12T06:10:02.626Z,22.33
2018-07-12T06:12:30.979Z,23.07
2018-07-12T06:14:59.335Z,22.87
2018-07-12T06:17:27.715Z,23.10
2018-07-12T06:19:56.172Z,22.52
2018-07-12T06:22:24.581Z,22.58
2018-07-12T06:24:52.997Z,23.57
2018-07-12T06:27:21.384Z,23.22
2018-07-12T06:29:49.805Z,24.10
2018-07-12T06:32:18.149Z,22.67
2018-07-12T06:34:46.511Z,21.70
2018-07-12T06:37:14.913Z,21.60
2018-07-12T06:39:43.386Z,22.27
2018-07-12T06:42:11.769Z,20.90
2018-07-12T06:44:40.105Z,22.80
2018-07-12T06:47:08.404Z,24.30
2018-07-12T06:49:36.757Z,23.17
2018-07-12T06:52:05.133Z,23.53
2018-07-12T06:54:33.488Z,22.70
2018-07-12T06:57:01.850Z,21.52
2018-07-12T06:59:30.183Z,20.40
2018-07-12T07:01:58.542Z,20.60
2018-07-12T07:04:26.866Z,19.35
2018-07-12T07:06:55.392Z,19.87
2018-07-12T07:09:23.727Z,20.23
2018-07-12T07:11:52.117Z,20.23
2018-07-12T07:14:20.461Z,21.67
2018-07-12T07:16:48.825Z,21.80
2018-07-12T07:19:17.165Z,22.70
2018-07-12T07:21:45.529Z,22.00
2018-07-12T07:24:13.882Z,20.10
2018-07-12T07:26:43.141Z,21.33
2018-07-12T07:29:11.489Z,22.25
2018-07-12T07:31:39.817Z,21.10
2018-07-12T07:34:08.219Z,20.27
2018-07-12T07:36:36.565Z,20.65
2018-07-12T07:39:07.052Z,20.10
2018-07-12T07:41:35.361Z,19.15
2018-07-12T07:44:04.183Z,20.48
2018-07-12T07:46:32.520Z,19.90
2018-07-12T07:49:00.854Z,18.23
2018-07-12T07:51:29.233Z,18.37
2018-07-12T07:53:57.602Z,18.27
2018-07-12T07:56:26.005Z,20.70
2018-07-12T07:58:54.339Z,20.40
2018-07-12T08:01:22.837Z,20.32
2018-07-12T08:03:51.190Z,17.90
2018-07-12T08:06:19.555Z,17.35
2018-07-12T08:08:47.905Z,17.50
2018-07-12T08:11:16.267Z,21.77
2018-07-12T08:13:44.660Z,20.95
2018-07-12T08:16:13.067Z,20.60
2018-07-12T08:18:41.445Z,18.00
2018-07-12T08:21:12.624Z,18.70
2018-07-12T08:23:41.257Z,18.55
2018-07-12T08:26:09.801Z,21.62
2018-07-12T08:28:38.167Z,21.23
2018-07-12T08:31:06.520Z,22.10
2018-07-12T08:33:34.885Z,17.85
2018-07-12T08:36:03.259Z,16.62
2018-07-12T08:38:31.632Z,18.82
2018-07-12T08:41:00.099Z,19.15
2018-07-12T08:43:28.933Z,18.50
2018-07-12T08:45:57.270Z,19.43
2018-07-12T08:48:25.644Z,22.25
2018-07-12T08:50:53.966Z,21.73
2018-07-12T08:53:22.286Z,22.95
2018-07-12T08:55:50.605Z,22.17
2018-07-12T08:58:18.989Z,23.22
2018-07-12T09:00:47.561Z,17.10
2018-07-12T09:03:15.933Z,14.63
2018-07-12T09:05:44.363Z,17.82
2018-07-12T09:08:12.680Z,18.60
2018-07-12T09:10:41.001Z,19.80
2018-07-12T09:13:09.372Z,19.55
2018-07-12T09:15:37.772Z,17.70
2018-07-12T09:18:06.202Z,17.60
2018-07-12T09:20:34.549Z,13.85
2018-07-12T09:23:02.902Z,13.50
2018-07-12T09:25:31.468Z,13.50
2018-07-12T09:27:59.815Z,12.93
2018-07-12T09:30:28.108Z,16.25
2018-07-12T09:32:56.435Z,17.70
2018-07-12T09:35:24.761Z,18.40
2018-07-12T09:37:53.113Z,17.43
2018-07-12T09:40:21.469Z,16.90
2018-07-12T09:42:49.810Z,14.45
2018-07-12T09:45:18.166Z,13.88
2018-07-12T09:47:46.483Z,13.90
2018-07-12T09:50:14.871Z,14.28
2018-07-12T09:52:43.229Z,14.40
2018-07-12T09:55:11.558Z,11.90
2018-07-12T09:57:51.208Z,11.68
2018-07-12T10:00:23.694Z,11.55
2018-07-12T10:03:30.691Z,10.90
2018-07-12T10:05:59.930Z,10.53
2018-07-12T10:08:33.536Z,11.33
2018-07-12T10:11:08.066Z,10.25
2018-07-12T10:13:41.743Z,9.93
2018-07-12T10:16:15.453Z,10.63
2018-07-12T10:18:43.896Z,10.03
2018-07-12T10:21:12.305Z,10.63
2018-07-12T10:23:47.348Z,9.83
2018-07-12T10:26:15.689Z,10.60
2018-07-12T10:28:44.330Z,9.50
2018-07-12T10:31:12.692Z,9.25
2018-07-12T10:33:41.036Z,9.00
2018-07-12T10:36:09.387Z,10.75
2018-07-12T10:38:37.721Z,9.70
2018-07-12T10:41:06.101Z,8.98
2018-07-12T10:43:34.437Z,8.53
2018-07-12T10:46:02.790Z,8.60
2018-07-12T10:48:31.124Z,8.85
2018-07-12T10:50:59.451Z,8.60
2018-07-12T10:53:27.762Z,7.77
2018-07-12T10:55:56.082Z,8.90
2018-07-12T10:58:24.515Z,8.80
2018-07-12T11:00:52.897Z,10.15
2018-07-12T11:03:21.253Z,8.83
2018-07-12T11:05:49.636Z,10.40
2018-07-12T11:08:18.081Z,8.65
2018-07-12T11:10:46.428Z,8.05
2018-07-12T11:13:17.476Z,8.63
2018-07-12T11:15:46.625Z,8.30
2018-07-12T11:18:14.980Z,8.20
2018-07-12T11:20:43.324Z,8.30
2018-07-12T11:23:11.667Z,8.88
2018-07-12T11:25:39.974Z,8.78
2018-07-12T11:28:08.380Z,8.78
2018-07-12T11:30:36.663Z,8.40
2018-07-12T11:33:32.129Z,9.05
2018-07-12T11:36:00.507Z,8.40
2018-07-12T11:38:28.835Z,8.13
2018-07-12T11:40:57.253Z,8.50
2018-07-12T11:43:25.588Z,8.00
2018-07-12T11:45:53.959Z,8.30
2018-07-12T11:48:22.575Z,7.30
2018-07-12T11:50:51.182Z,7.90
2018-07-12T11:53:19.541Z,7.35
2018-07-12T11:55:48.074Z,7.25
2018-07-12T11:58:16.422Z,7.05
2018-07-12T12:00:44.870Z,7.20
2018-07-12T12:03:13.213Z,8.15
2018-07-12T12:05:41.793Z,7.78
2018-07-12T12:08:10.120Z,7.83
2018-07-12T12:10:38.511Z,7.78
2018-07-12T12:13:06.842Z,8.48
2018-07-12T12:15:35.160Z,8.58
2018-07-12T12:18:03.542Z,7.40
2018-07-12T12:20:31.841Z,6.80
2018-07-12T12:23:00.133Z,6.80
2018-07-12T12:25:28.453Z,6.87
2018-07-12T12:27:57.223Z,7.10
2018-07-12T12:30:25.744Z,7.22
2018-07-12T12:32:54.100Z,7.77
2018-07-12T12:35:22.437Z,6.30
2018-07-12T12:37:50.782Z,6.20
2018-07-12T12:40:19.108Z,6.10
2018-07-12T12:42:47.491Z,5.80
2018-07-12T12:45:15.810Z,5.62
2018-07-12T12:47:44.129Z,6.15
2018-07-12T12:50:12.456Z,6.47
2018-07-12T12:52:40.806Z,6.83
2018-07-12T12:55:09.122Z,6.20
2018-07-12T12:57:37.669Z,5.80
2018-07-12T13:00:06.905Z,6.20
2018-07-12T13:02:35.299Z,5.80
2018-07-12T13:05:03.999Z,5.50
2018-07-12T13:07:32.345Z,6.05
2018-07-12T13:10:00.731Z,6.20
2018-07-12T13:12:29.069Z,6.17
2018-07-12T13:14:57.368Z,6.00
2018-07-12T13:17:25.744Z,6.20
2018-07-12T13:19:54.081Z,5.95
2018-07-12T13:22:22.433Z,5.90
2018-07-12T13:24:50.802Z,5.10
2018-07-12T13:27:19.223Z,7.20
2018-07-12T13:29:47.568Z,6.67
2018-07-12T13:32:16.078Z,6.07
2018-07-12T13:34:44.438Z,6.45
2018-07-12T13:37:12.794Z,7.03
2018-07-12T13:39:41.111Z,6.60
2018-07-12T13:42:09.412Z,6.50
2018-07-12T13:44:37.741Z,6.35
2018-07-12T13:47:06.208Z,6.08
2018-07-12T13:49:34.527Z,5.33
2018-07-12T13:52:02.892Z,5.87
2018-07-12T13:54:31.226Z,5.33
2018-07-12T13:56:59.597Z,5.20
2018-07-12T13:59:27.914Z,5.12
2018-07-12T14:01:56.242Z,4.83
2018-07-12T14:04:24.564Z,5.85
2018-07-12T14:06:52.991Z,5.10
2018-07-12T14:09:21.359Z,4.90
2018-07-12T14:11:49.657Z,5.12
2018-07-12T14:14:17.995Z,4.97
2018-07-12T14:16:46.332Z,5.20
2018-07-12T14:19:14.711Z,5.03
2018-07-12T14:21:43.043Z,4.50
2018-07-12T14:24:11.393Z,4.62
2018-07-12T14:26:39.696Z,4.40
2018-07-12T14:29:08.020Z,4.37
2018-07-12T14:31:36.341Z,4.63
2018-07-12T14:34:04.719Z,4.05
2018-07-12T14:36:33.059Z,4.25
2018-07-12T14:39:01.421Z,4.28
2018-07-12T14:41:29.791Z,3.95
2018-07-12T14:43:58.111Z,3.65
2018-07-12T14:46:26.496Z,4.33
2018-07-12T14:48:54.801Z,3.90
2018-07-12T14:51:23.208Z,4.57
2018-07-12T14:53:51.512Z,3.90
2018-07-12T14:56:19.817Z,3.60
2018-07-12T14:58:48.289Z,3.65
2018-07-12T15:01:16.608Z,3.83
2018-07-12T15:03:44.934Z,3.50
2018-07-12T15:06:13.228Z,4.00
2018-07-12T15:08:41.631Z,3.58
2018-07-12T15:11:09.968Z,3.70
2018-07-12T15:13:38.286Z,3.80
2018-07-12T15:16:06.641Z,4.50
2018-07-12T15:18:34.992Z,6.40
2018-07-12T15:21:03.340Z,6.25
2018-07-12T15:23:31.705Z,5.62
2018-07-12T15:26:00.131Z,6.00
2018-07-12T15:28:28.499Z,6.67
2018-07-12T15:30:56.800Z,7.22
2018-07-12T15:33:25.172Z,6.30
2018-07-12T15:35:53.657Z,6.50
2018-07-12T15:38:22.019Z,6.80
2018-07-12T15:40:50.383Z,6.60
2018-07-12T15:43:18.788Z,7.03
2018-07-12T15:45:47.121Z,6.37
2018-07-12T15:48:15.475Z,6.40
2018-07-12T15:50:43.849Z,6.60
2018-07-12T15:53:12.239Z,6.65
2018-07-12T15:55:40.562Z,6.97
2018-07-12T15:58:08.894Z,6.40
2018-07-12T16:00:37.249Z,6.70
2018-07-12T16:03:05.615Z,6.43
2018-07-12T16:05:33.964Z,6.43
2018-07-12T16:08:02.275Z,6.37
2018-07-12T16:10:30.736Z,5.90
2018-07-12T16:12:59.056Z,5.87
2018-07-12T16:15:27.453Z,6.10
2018-07-12T16:17:55.824Z,6.10
2018-07-12T16:20:24.137Z,6.25
2018-07-12T16:22:52.540Z,6.20
2018-07-12T16:25:20.994Z,6.65
2018-07-12T16:27:49.403Z,5.80
2018-07-12T16:30:17.691Z,5.40
2018-07-12T16:32:46.026Z,5.70
2018-07-12T16:35:14.351Z,6.15
2018-07-12T16:37:42.697Z,8.83
2018-07-12T16:40:11.046Z,5.90
2018-07-12T16:42:39.379Z,6.17
2018-07-12T16:45:07.909Z,5.62
2018-07-12T16:47:36.212Z,6.05
2018-07-12T16:50:04.679Z,6.10
2018-07-12T16:52:33.006Z,6.30
2018-07-12T16:55:01.276Z,6.50
2018-07-12T16:57:29.704Z,6.60
2018-07-12T16:59:58.045Z,8.38
2018-07-12T17:02:26.396Z,11.00
2018-07-12T17:04:54.712Z,6.90
2018-07-12T17:07:23.083Z,6.10
2018-07-12T17:09:51.432Z,6.80
2018-07-12T17:12:19.788Z,8.20
2018-07-12T17:14:48.118Z,10.03
2018-07-12T17:17:16.492Z,10.10
2018-07-12T17:19:44.944Z,11.10
2018-07-12T17:22:13.325Z,11.30
2018-07-12T17:24:41.679Z,10.72
2018-07-12T17:27:10.014Z,10.35
2018-07-12T17:29:38.409Z,11.50
2018-07-12T17:32:06.724Z,11.83
2018-07-12T17:34:35.081Z,11.33
2018-07-12T17:37:03.424Z,11.40
2018-07-12T17:39:31.752Z,10.82
2018-07-12T17:42:00.081Z,10.72
2018-07-12T17:44:28.415Z,11.15
2018-07-12T17:46:56.874Z,9.88
2018-07-12T17:49:25.268Z,11.15
2018-07-12T17:51:53.848Z,10.40
2018-07-12T17:54:22.188Z,11.12
2018-07-12T17:56:50.880Z,10.20
2018-07-12T17:59:19.170Z,9.80
2018-07-12T18:01:47.482Z,9.63
2018-07-12T18:04:15.850Z,9.95
2018-07-12T18:06:44.192Z,11.05
2018-07-12T18:09:12.525Z,9.20
2018-07-12T18:11:41.101Z,9.40
2018-07-12T18:14:09.456Z,13.53
2018-07-12T18:16:37.872Z,10.10
2018-07-12T18:19:06.292Z,15.72
2018-07-12T18:21:34.600Z,19.15
2018-07-12T18:24:02.942Z,15.90
2018-07-12T18:26:31.252Z,11.65
2018-07-12T18:28:59.631Z,11.53
2018-07-12T18:31:27.956Z,12.40
2018-07-12T18:33:56.369Z,11.50
2018-07-12T18:36:24.785Z,12.20
2018-07-12T18:38:53.133Z,12.58
2018-07-12T18:41:21.527Z,13.30
2018-07-12T18:43:50.094Z,13.80
2018-07-12T18:46:18.433Z,14.43
2018-07-12T18:48:46.755Z,14.20
2018-07-12T18:51:15.091Z,14.07
2018-07-12T18:53:43.401Z,14.00
2018-07-12T18:56:11.811Z,13.23
2018-07-12T18:58:40.169Z,13.87
2018-07-12T19:01:08.531Z,14.70
2018-07-12T19:03:36.829Z,13.83
2018-07-12T19:06:05.188Z,14.10
2018-07-12T19:08:33.539Z,13.53
2018-07-12T19:11:01.928Z,14.40
2018-07-12T19:13:30.305Z,15.10
2018-07-12T19:15:58.663Z,16.00
2018-07-12T19:18:26.989Z,17.17
2018-07-12T19:20:55.365Z,17.57
2018-07-12T19:23:23.787Z,16.03
2018-07-12T19:25:52.117Z,16.13
2018-07-12T19:28:20.500Z,13.50
2018-07-12T19:30:48.862Z,14.53
2018-07-12T19:33:17.290Z,14.70
2018-07-12T19:35:45.625Z,15.57
2018-07-12T19:38:13.959Z,14.53
2018-07-12T19:40:42.323Z,13.77
2018-07-12T19:43:10.634Z,12.30
2018-07-12T19:45:38.966Z,13.70
2018-07-12T19:48:07.302Z,14.33
2018-07-12T19:50:35.637Z,14.70
2018-07-12T19:53:04.017Z,14.35
2018-07-12T19:55:32.352Z,13.20
2018-07-12T19:58:00.693Z,13.17
2018-07-12T20:00:29.006Z,14.30
2018-07-12T20:02:57.361Z,14.30
2018-07-12T20:05:25.681Z,14.25
2018-07-12T20:07:53.966Z,13.40
2018-07-12T20:10:22.296Z,13.40
2018-07-12T20:12:53.541Z,14.37
2018-07-12T20:15:21.903Z,15.10
2018-07-12T20:17:50.244Z,14.85
2018-07-12T20:20:18.658Z,14.20
2018-07-12T20:22:46.999Z,14.18
2018-07-12T20:25:15.337Z,13.30
2018-07-12T20:27:43.635Z,13.10
2018-07-12T20:30:12.037Z,13.93
2018-07-12T20:32:40.747Z,12.50
2018-07-12T20:35:09.063Z,12.70
2018-07-12T20:37:37.476Z,12.90
2018-07-12T20:40:05.821Z,13.90
2018-07-12T20:42:34.141Z,13.00
2018-07-12T20:45:02.627Z,13.70
2018-07-12T20:47:31.003Z,13.50
2018-07-12T20:49:59.588Z,13.58
2018-07-12T20:52:27.942Z,12.90
2018-07-12T20:54:59.424Z,13.18
2018-07-12T20:57:27.814Z,13.55
2018-07-12T20:59:56.169Z,13.72
2018-07-12T21:02:24.506Z,14.23
2018-07-12T21:04:52.890Z,13.85
2018-07-12T21:07:21.259Z,14.07
2018-07-12T21:09:49.569Z,13.65
2018-07-12T21:12:18.434Z,14.47
2018-07-12T21:14:46.808Z,14.73
2018-07-12T21:17:15.252Z,14.70
2018-07-12T21:19:43.601Z,14.30
2018-07-12T21:22:11.897Z,16.07
2018-07-12T21:24:40.245Z,15.80
2018-07-12T21:27:08.550Z,15.80
2018-07-12T21:29:36.889Z,16.15
2018-07-12T21:32:05.255Z,16.60
2018-07-12T21:34:33.614Z,16.75
2018-07-12T21:37:01.967Z,16.35
2018-07-12T21:39:30.263Z,16.85
2018-07-12T21:41:58.670Z,15.85
2018-07-12T21:44:27.075Z,16.80
2018-07-12T21:46:55.397Z,17.55
2018-07-12T21:49:23.739Z,17.50
2018-07-12T21:51:52.608Z,16.95
2018-07-12T21:54:20.954Z,17.20
2018-07-12T21:56:49.282Z,17.70
2018-07-12T21:59:17.613Z,19.20
2018-07-12T22:01:45.916Z,20.37
2018-07-12T22:04:14.260Z,19.80
2018-07-12T22:08:51.351Z,20.00
2018-07-12T22:11:19.686Z,19.15
2018-07-12T22:13:48.039Z,19.00
2018-07-12T22:16:16.627Z,19.92
2018-07-12T22:18:44.944Z,20.62
2018-07-12T22:21:13.284Z,19.70
2018-07-12T22:23:41.616Z,19.32
2018-07-12T22:26:09.919Z,18.92
2018-07-12T22:28:38.280Z,17.55
2018-07-12T22:31:06.623Z,17.65
2018-07-12T22:33:34.932Z,17.87
2018-07-12T22:36:03.280Z,18.00
2018-07-12T22:38:31.623Z,17.67
2018-07-12T22:40:59.970Z,17.02
2018-07-12T22:43:28.352Z,17.50
2018-07-12T22:45:56.643Z,17.05
2018-07-12T22:48:25.187Z,16.82
2018-07-12T22:50:53.318Z,17.80
2018-07-12T22:53:21.678Z,17.30
2018-07-12T22:55:50.034Z,16.82
2018-07-12T22:58:18.383Z,16.40
2018-07-12T23:00:46.974Z,15.77
2018-07-12T23:03:15.327Z,15.20
2018-07-12T23:05:43.663Z,17.25
2018-07-12T23:08:12.031Z,15.78
2018-07-12T23:10:40.346Z,15.93
2018-07-12T23:13:08.757Z,14.00
2018-07-12T23:15:37.102Z,14.60
2018-07-12T23:18:05.714Z,14.47
2018-07-12T23:20:34.089Z,13.60
2018-07-12T23:23:02.464Z,13.30
2018-07-12T23:25:30.814Z,14.03
2018-07-12T23:27:59.165Z,12.20
2018-07-12T23:30:27.519Z,12.10
2018-07-12T23:32:55.967Z,12.88
2018-07-12T23:35:24.333Z,11.78
2018-07-12T23:37:53.041Z,12.60
2018-07-12T23:40:21.447Z,12.10
2018-07-12T23:42:49.777Z,11.97
2018-07-12T23:45:18.111Z,11.40
2018-07-12T23:47:46.410Z,10.50
2018-07-12T23:50:14.819Z,11.00
2018-07-12T23:52:43.189Z,12.20
2018-07-12T23:55:11.537Z,10.72
2018-07-12T23:57:39.885Z,11.60
